sensor_id;sensor_type;location;lat;lon;timestamp;P1;durP1;ratioP1;P2;durP2;ratioP2
68140;SDS011;54941;52.220;104.306;2022-10-04T00:01:44;26.98;;;11.95;;
68140;SDS011;54941;52.220;104.306;2022-10-04T00:04:15;21.98;;;10.60;;
68140;SDS011;54941;52.220;104.306;2022-10-04T00:06:48;20.85;;;10.43;;
68140;SDS011;54941;52.220;104.306;2022-10-04T00:09:22;22.67;;;11.80;;
68140;SDS011;54941;52.220;104.306;2022-10-04T00:11:59;24.90;;;9.80;;
68140;SDS011;54941;52.220;104.306;2022-10-04T00:14:29;21.30;;;10.30;;
68140;SDS011;54941;52.220;104.306;2022-10-04T00:17:06;23.30;;;11.95;;
68140;SDS011;54941;52.220;104.306;2022-10-04T00:19:41;29.60;;;12.10;;
68140;SDS011;54941;52.220;104.306;2022-10-04T00:22:19;25.27;;;12.15;;
68140;SDS011;54941;52.220;104.306;2022-10-04T00:33:53;25.67;;;13.02;;
68140;SDS011;54941;52.220;104.306;2022-10-04T00:36:33;29.40;;;13.55;;
68140;SDS011;54941;52.220;104.306;2022-10-04T00:39:23;27.08;;;12.48;;
68140;SDS011;54941;52.220;104.306;2022-10-04T00:41:56;21.33;;;11.15;;
68140;SDS011;54941;52.220;104.306;2022-10-04T00:44:32;24.48;;;11.82;;
68140;SDS011;54941;52.220;104.306;2022-10-04T00:47:11;23.75;;;10.57;;
68140;SDS011;54941;52.220;104.306;2022-10-04T00:49:47;24.80;;;11.18;;
68140;SDS011;54941;52.220;104.306;2022-10-04T00:52:19;25.23;;;11.80;;
68140;SDS011;54941;52.220;104.306;2022-10-04T00:54:50;36.55;;;16.95;;
68140;SDS011;54941;52.220;104.306;2022-10-04T00:57:55;35.03;;;16.02;;
68140;SDS011;54941;52.220;104.306;2022-10-04T01:00:15;27.23;;;14.68;;
68140;SDS011;54941;52.220;104.306;2022-10-04T01:02:45;26.80;;;13.55;;
68140;SDS011;54941;52.220;104.306;2022-10-04T01:05:18;28.88;;;13.95;;
68140;SDS011;54941;52.220;104.306;2022-10-04T01:07:50;28.85;;;13.13;;
68140;SDS011;54941;52.220;104.306;2022-10-04T01:10:20;26.33;;;12.65;;
68140;SDS011;54941;52.220;104.306;2022-10-04T01:12:50;27.90;;;13.23;;
68140;SDS011;54941;52.220;104.306;2022-10-04T01:15:24;23.73;;;14.10;;
68140;SDS011;54941;52.220;104.306;2022-10-04T01:18:10;22.85;;;13.00;;
68140;SDS011;54941;52.220;104.306;2022-10-04T01:20:40;34.28;;;13.68;;
68140;SDS011;54941;52.220;104.306;2022-10-04T01:23:33;27.73;;;12.65;;
68140;SDS011;54941;52.220;104.306;2022-10-04T01:26:05;26.23;;;13.00;;
68140;SDS011;54941;52.220;104.306;2022-10-04T01:28:46;28.17;;;14.52;;
68140;SDS011;54941;52.220;104.306;2022-10-04T01:31:13;27.23;;;12.52;;
68140;SDS011;54941;52.220;104.306;2022-10-04T01:33:39;25.35;;;12.27;;
68140;SDS011;54941;52.220;104.306;2022-10-04T01:36:06;27.13;;;12.45;;
68140;SDS011;54941;52.220;104.306;2022-10-04T01:38:34;29.35;;;13.95;;
68140;SDS011;54941;52.220;104.306;2022-10-04T01:41:01;24.45;;;13.77;;
68140;SDS011;54941;52.220;104.306;2022-10-04T01:43:37;22.83;;;11.85;;
68140;SDS011;54941;52.220;104.306;2022-10-04T01:46:07;26.23;;;12.82;;
68140;SDS011;54941;52.220;104.306;2022-10-04T01:48:37;27.95;;;15.02;;
68140;SDS011;54941;52.220;104.306;2022-10-04T01:51:10;27.02;;;14.43;;
68140;SDS011;54941;52.220;104.306;2022-10-04T01:53:45;27.98;;;14.10;;
68140;SDS011;54941;52.220;104.306;2022-10-04T01:56:18;24.80;;;13.75;;
68140;SDS011;54941;52.220;104.306;2022-10-04T01:58:50;25.70;;;13.98;;
68140;SDS011;54941;52.220;104.306;2022-10-04T02:03:50;29.10;;;14.27;;
68140;SDS011;54941;52.220;104.306;2022-10-04T02:06:22;24.50;;;12.55;;
68140;SDS011;54941;52.220;104.306;2022-10-04T02:08:51;31.52;;;13.85;;
68140;SDS011;54941;52.220;104.306;2022-10-04T02:11:20;31.20;;;14.25;;
68140;SDS011;54941;52.220;104.306;2022-10-04T02:13:47;29.52;;;14.57;;
68140;SDS011;54941;52.220;104.306;2022-10-04T02:16:16;29.25;;;14.23;;
68140;SDS011;54941;52.220;104.306;2022-10-04T02:18:43;28.80;;;13.98;;
68140;SDS011;54941;52.220;104.306;2022-10-04T02:21:11;28.20;;;15.00;;
68140;SDS011;54941;52.220;104.306;2022-10-04T02:23:38;24.95;;;14.25;;
68140;SDS011;54941;52.220;104.306;2022-10-04T02:26:08;29.73;;;15.52;;
68140;SDS011;54941;52.220;104.306;2022-10-04T02:28:36;29.73;;;14.75;;
68140;SDS011;54941;52.220;104.306;2022-10-04T02:31:03;27.58;;;13.35;;
68140;SDS011;54941;52.220;104.306;2022-10-04T02:33:31;26.67;;;13.75;;
68140;SDS011;54941;52.220;104.306;2022-10-04T02:35:58;26.35;;;13.02;;
68140;SDS011;54941;52.220;104.306;2022-10-04T02:38:27;19.42;;;11.57;;
68140;SDS011;54941;52.220;104.306;2022-10-04T02:40:59;21.75;;;11.20;;
68140;SDS011;54941;52.220;104.306;2022-10-04T02:43:33;22.30;;;12.20;;
68140;SDS011;54941;52.220;104.306;2022-10-04T02:46:04;25.63;;;11.65;;
68140;SDS011;54941;52.220;104.306;2022-10-04T02:48:38;23.63;;;11.95;;
68140;SDS011;54941;52.220;104.306;2022-10-04T02:51:14;21.63;;;11.90;;
68140;SDS011;54941;52.220;104.306;2022-10-04T02:53:49;20.92;;;12.13;;
68140;SDS011;54941;52.220;104.306;2022-10-04T02:56:20;23.13;;;11.60;;
68140;SDS011;54941;52.220;104.306;2022-10-04T02:58:50;22.88;;;11.23;;
68140;SDS011;54941;52.220;104.306;2022-10-04T03:01:22;19.50;;;11.32;;
68140;SDS011;54941;52.220;104.306;2022-10-04T03:03:50;20.63;;;9.55;;
68140;SDS011;54941;52.220;104.306;2022-10-04T03:06:19;24.10;;;10.85;;
68140;SDS011;54941;52.220;104.306;2022-10-04T03:08:47;18.50;;;10.90;;
68140;SDS011;54941;52.220;104.306;2022-10-04T03:11:18;22.67;;;12.57;;
68140;SDS011;54941;52.220;104.306;2022-10-04T03:13:48;22.77;;;11.57;;
68140;SDS011;54941;52.220;104.306;2022-10-04T03:16:17;19.95;;;11.30;;
68140;SDS011;54941;52.220;104.306;2022-10-04T03:18:45;22.50;;;11.40;;
68140;SDS011;54941;52.220;104.306;2022-10-04T03:21:13;17.83;;;11.55;;
68140;SDS011;54941;52.220;104.306;2022-10-04T03:23:42;21.77;;;12.57;;
68140;SDS011;54941;52.220;104.306;2022-10-04T03:26:13;22.70;;;12.60;;
68140;SDS011;54941;52.220;104.306;2022-10-04T03:28:48;22.27;;;14.60;;
68140;SDS011;54941;52.220;104.306;2022-10-04T03:31:17;19.23;;;11.90;;
68140;SDS011;54941;52.220;104.306;2022-10-04T03:33:44;22.70;;;12.60;;
68140;SDS011;54941;52.220;104.306;2022-10-04T03:36:12;21.85;;;13.02;;
68140;SDS011;54941;52.220;104.306;2022-10-04T03:38:40;55.75;;;14.52;;
68140;SDS011;54941;52.220;104.306;2022-10-04T03:41:08;23.38;;;12.73;;
68140;SDS011;54941;52.220;104.306;2022-10-04T03:43:37;23.20;;;12.15;;
68140;SDS011;54941;52.220;104.306;2022-10-04T03:46:08;24.90;;;12.18;;
68140;SDS011;54941;52.220;104.306;2022-10-04T03:48:36;17.73;;;11.18;;
68140;SDS011;54941;52.220;104.306;2022-10-04T03:51:06;15.25;;;9.95;;
68140;SDS011;54941;52.220;104.306;2022-10-04T03:53:38;15.45;;;9.65;;
68140;SDS011;54941;52.220;104.306;2022-10-04T03:56:07;13.88;;;8.40;;
68140;SDS011;54941;52.220;104.306;2022-10-04T03:58:37;16.80;;;8.90;;
68140;SDS011;54941;52.220;104.306;2022-10-04T04:01:06;12.65;;;7.55;;
68140;SDS011;54941;52.220;104.306;2022-10-04T04:06:22;9.75;;;6.30;;
68140;SDS011;54941;52.220;104.306;2022-10-04T04:08:52;10.57;;;6.00;;
68140;SDS011;54941;52.220;104.306;2022-10-04T04:11:22;12.82;;;8.05;;
68140;SDS011;54941;52.220;104.306;2022-10-04T04:13:53;13.63;;;7.38;;
68140;SDS011;54941;52.220;104.306;2022-10-04T04:16:27;13.32;;;6.93;;
68140;SDS011;54941;52.220;104.306;2022-10-04T04:18:56;10.95;;;6.82;;
68140;SDS011;54941;52.220;104.306;2022-10-04T04:21:25;11.73;;;5.97;;
68140;SDS011;54941;52.220;104.306;2022-10-04T04:23:53;11.05;;;5.35;;
68140;SDS011;54941;52.220;104.306;2022-10-04T04:26:25;8.38;;;5.20;;
68140;SDS011;54941;52.220;104.306;2022-10-04T04:29:00;7.95;;;5.13;;
68140;SDS011;54941;52.220;104.306;2022-10-04T04:31:34;11.55;;;5.78;;
68140;SDS011;54941;52.220;104.306;2022-10-04T04:34:12;9.35;;;5.57;;
68140;SDS011;54941;52.220;104.306;2022-10-04T04:36:41;15.05;;;6.07;;
68140;SDS011;54941;52.220;104.306;2022-10-04T04:39:11;12.02;;;5.63;;
68140;SDS011;54941;52.220;104.306;2022-10-04T04:41:40;12.45;;;5.90;;
68140;SDS011;54941;52.220;104.306;2022-10-04T04:44:13;9.65;;;5.55;;
68140;SDS011;54941;52.220;104.306;2022-10-04T04:46:44;10.32;;;4.97;;
68140;SDS011;54941;52.220;104.306;2022-10-04T04:49:11;11.55;;;5.72;;
68140;SDS011;54941;52.220;104.306;2022-10-04T04:51:38;8.82;;;5.63;;
68140;SDS011;54941;52.220;104.306;2022-10-04T04:54:06;11.18;;;5.30;;
68140;SDS011;54941;52.220;104.306;2022-10-04T04:56:32;7.60;;;4.47;;
68140;SDS011;54941;52.220;104.306;2022-10-04T04:59:01;8.77;;;5.03;;
68140;SDS011;54941;52.220;104.306;2022-10-04T05:01:30;7.22;;;4.07;;
68140;SDS011;54941;52.220;104.306;2022-10-04T05:04:01;5.30;;;2.90;;
68140;SDS011;54941;52.220;104.306;2022-10-04T05:06:30;4.45;;;2.80;;
68140;SDS011;54941;52.220;104.306;2022-10-04T05:08:58;6.18;;;3.75;;
68140;SDS011;54941;52.220;104.306;2022-10-04T05:11:25;9.30;;;4.60;;
68140;SDS011;54941;52.220;104.306;2022-10-04T05:13:55;8.07;;;4.55;;
68140;SDS011;54941;52.220;104.306;2022-10-04T05:16:25;8.98;;;5.40;;
68140;SDS011;54941;52.220;104.306;2022-10-04T05:18:57;6.70;;;4.30;;
68140;SDS011;54941;52.220;104.306;2022-10-04T05:21:30;9.82;;;5.13;;
68140;SDS011;54941;52.220;104.306;2022-10-04T05:24:04;7.85;;;3.90;;
68140;SDS011;54941;52.220;104.306;2022-10-04T05:26:34;8.27;;;4.32;;
68140;SDS011;54941;52.220;104.306;2022-10-04T05:29:05;8.95;;;4.35;;
68140;SDS011;54941;52.220;104.306;2022-10-04T05:31:37;9.32;;;5.00;;
68140;SDS011;54941;52.220;104.306;2022-10-04T05:34:20;8.82;;;5.13;;
68140;SDS011;54941;52.220;104.306;2022-10-04T05:39:54;10.35;;;4.97;;
68140;SDS011;54941;52.220;104.306;2022-10-04T05:42:34;11.68;;;5.65;;
68140;SDS011;54941;52.220;104.306;2022-10-04T05:45:10;7.40;;;4.13;;
68140;SDS011;54941;52.220;104.306;2022-10-04T05:47:40;7.13;;;4.32;;
68140;SDS011;54941;52.220;104.306;2022-10-04T05:50:12;10.80;;;4.68;;
68140;SDS011;54941;52.220;104.306;2022-10-04T05:52:41;9.07;;;4.75;;
68140;SDS011;54941;52.220;104.306;2022-10-04T05:58:18;6.85;;;4.40;;
68140;SDS011;54941;52.220;104.306;2022-10-04T06:00:59;11.15;;;4.22;;
68140;SDS011;54941;52.220;104.306;2022-10-04T06:03:44;8.18;;;4.43;;
68140;SDS011;54941;52.220;104.306;2022-10-04T06:06:27;6.45;;;3.85;;
68140;SDS011;54941;52.220;104.306;2022-10-04T06:09:04;7.22;;;4.20;;
68140;SDS011;54941;52.220;104.306;2022-10-04T06:11:42;7.88;;;3.88;;
68140;SDS011;54941;52.220;104.306;2022-10-04T06:14:25;7.57;;;4.50;;
68140;SDS011;54941;52.220;104.306;2022-10-04T06:17:20;7.32;;;4.05;;
68140;SDS011;54941;52.220;104.306;2022-10-04T06:20:02;8.60;;;5.30;;
68140;SDS011;54941;52.220;104.306;2022-10-04T06:22:43;7.60;;;3.70;;
68140;SDS011;54941;52.220;104.306;2022-10-04T06:25:12;7.57;;;4.50;;
68140;SDS011;54941;52.220;104.306;2022-10-04T06:27:50;7.78;;;4.20;;
68140;SDS011;54941;52.220;104.306;2022-10-04T06:30:21;6.65;;;3.72;;
68140;SDS011;54941;52.220;104.306;2022-10-04T06:32:57;8.30;;;4.22;;
68140;SDS011;54941;52.220;104.306;2022-10-04T06:41:39;9.30;;;5.28;;
68140;SDS011;54941;52.220;104.306;2022-10-04T06:44:24;8.65;;;5.15;;
68140;SDS011;54941;52.220;104.306;2022-10-04T06:47:22;8.65;;;4.88;;
68140;SDS011;54941;52.220;104.306;2022-10-04T06:50:11;10.05;;;5.07;;
68140;SDS011;54941;52.220;104.306;2022-10-04T06:52:52;8.38;;;4.78;;
68140;SDS011;54941;52.220;104.306;2022-10-04T06:55:37;10.75;;;5.72;;
68140;SDS011;54941;52.220;104.306;2022-10-04T06:58:26;8.45;;;4.68;;
68140;SDS011;54941;52.220;104.306;2022-10-04T07:01:18;7.60;;;5.00;;
68140;SDS011;54941;52.220;104.306;2022-10-04T07:03:52;10.75;;;5.85;;
68140;SDS011;54941;52.220;104.306;2022-10-04T07:06:26;9.20;;;5.20;;
68140;SDS011;54941;52.220;104.306;2022-10-04T07:08:58;8.95;;;5.55;;
68140;SDS011;54941;52.220;104.306;2022-10-04T07:11:29;9.70;;;5.30;;
68140;SDS011;54941;52.220;104.306;2022-10-04T07:14:03;9.48;;;5.60;;
68140;SDS011;54941;52.220;104.306;2022-10-04T07:16:37;7.82;;;5.03;;
68140;SDS011;54941;52.220;104.306;2022-10-04T07:19:22;12.15;;;6.00;;
68140;SDS011;54941;52.220;104.306;2022-10-04T07:21:58;9.60;;;5.50;;
68140;SDS011;54941;52.220;104.306;2022-10-04T07:24:32;9.80;;;5.25;;
68140;SDS011;54941;52.220;104.306;2022-10-04T07:27:09;10.25;;;6.00;;
68140;SDS011;54941;52.220;104.306;2022-10-04T07:29:40;11.75;;;6.05;;
68140;SDS011;54941;52.220;104.306;2022-10-04T07:32:10;7.95;;;4.95;;
68140;SDS011;54941;52.220;104.306;2022-10-04T07:34:42;10.45;;;4.68;;
68140;SDS011;54941;52.220;104.306;2022-10-04T07:37:11;8.15;;;4.28;;
68140;SDS011;54941;52.220;104.306;2022-10-04T07:39:41;8.15;;;4.78;;
68140;SDS011;54941;52.220;104.306;2022-10-04T07:42:18;8.82;;;5.15;;
68140;SDS011;54941;52.220;104.306;2022-10-04T07:44:53;9.38;;;5.40;;
68140;SDS011;54941;52.220;104.306;2022-10-04T07:47:39;9.75;;;5.32;;
68140;SDS011;54941;52.220;104.306;2022-10-04T07:50:18;9.20;;;5.70;;
68140;SDS011;54941;52.220;104.306;2022-10-04T07:52:51;9.93;;;6.22;;
68140;SDS011;54941;52.220;104.306;2022-10-04T07:55:22;10.30;;;5.80;;
68140;SDS011;54941;52.220;104.306;2022-10-04T07:58:04;9.63;;;5.43;;
68140;SDS011;54941;52.220;104.306;2022-10-04T08:00:44;10.60;;;5.60;;
68140;SDS011;54941;52.220;104.306;2022-10-04T08:06:15;10.40;;;5.43;;
68140;SDS011;54941;52.220;104.306;2022-10-04T08:08:50;7.28;;;4.55;;
68140;SDS011;54941;52.220;104.306;2022-10-04T08:11:40;7.03;;;3.67;;
68140;SDS011;54941;52.220;104.306;2022-10-04T08:14:23;7.45;;;5.03;;
68140;SDS011;54941;52.220;104.306;2022-10-04T08:16:56;7.43;;;4.40;;
68140;SDS011;54941;52.220;104.306;2022-10-04T08:19:36;6.22;;;4.00;;
68140;SDS011;54941;52.220;104.306;2022-10-04T08:22:12;9.15;;;4.82;;
68140;SDS011;54941;52.220;104.306;2022-10-04T08:24:51;9.27;;;5.38;;
68140;SDS011;54941;52.220;104.306;2022-10-04T08:27:29;10.43;;;5.00;;
68140;SDS011;54941;52.220;104.306;2022-10-04T08:30:08;7.10;;;4.10;;
68140;SDS011;54941;52.220;104.306;2022-10-04T08:32:47;8.63;;;4.95;;
68140;SDS011;54941;52.220;104.306;2022-10-04T08:35:31;7.78;;;5.05;;
68140;SDS011;54941;52.220;104.306;2022-10-04T08:38:13;7.63;;;4.38;;
68140;SDS011;54941;52.220;104.306;2022-10-04T08:41:04;8.15;;;4.80;;
68140;SDS011;54941;52.220;104.306;2022-10-04T08:56:10;6.72;;;4.22;;
68140;SDS011;54941;52.220;104.306;2022-10-04T09:02:00;9.00;;;4.68;;
68140;SDS011;54941;52.220;104.306;2022-10-04T09:04:54;8.70;;;4.45;;
68140;SDS011;54941;52.220;104.306;2022-10-04T09:10:35;7.38;;;4.78;;
68140;SDS011;54941;52.220;104.306;2022-10-04T09:13:22;15.75;;;5.60;;
68140;SDS011;54941;52.220;104.306;2022-10-04T09:16:07;7.85;;;4.38;;
68140;SDS011;54941;52.220;104.306;2022-10-04T09:18:50;7.47;;;4.22;;
68140;SDS011;54941;52.220;104.306;2022-10-04T09:21:27;10.48;;;4.22;;
68140;SDS011;54941;52.220;104.306;2022-10-04T09:24:19;8.10;;;4.30;;
68140;SDS011;54941;52.220;104.306;2022-10-04T09:27:05;9.82;;;5.38;;
68140;SDS011;54941;52.220;104.306;2022-10-04T09:29:58;8.48;;;4.85;;
68140;SDS011;54941;52.220;104.306;2022-10-04T09:32:50;10.55;;;4.72;;
68140;SDS011;54941;52.220;104.306;2022-10-04T09:35:46;8.32;;;5.35;;
68140;SDS011;54941;52.220;104.306;2022-10-04T09:38:41;8.07;;;4.63;;
68140;SDS011;54941;52.220;104.306;2022-10-04T09:41:40;7.93;;;4.50;;
68140;SDS011;54941;52.220;104.306;2022-10-04T09:44:35;7.95;;;4.47;;
68140;SDS011;54941;52.220;104.306;2022-10-04T09:47:24;11.23;;;5.72;;
68140;SDS011;54941;52.220;104.306;2022-10-04T09:50:03;10.73;;;6.20;;
68140;SDS011;54941;52.220;104.306;2022-10-04T09:52:53;11.82;;;6.63;;
68140;SDS011;54941;52.220;104.306;2022-10-04T09:55:27;8.98;;;5.05;;
68140;SDS011;54941;52.220;104.306;2022-10-04T09:58:14;11.32;;;4.43;;
68140;SDS011;54941;52.220;104.306;2022-10-04T10:00:57;10.25;;;5.03;;
68140;SDS011;54941;52.220;104.306;2022-10-04T10:03:37;13.23;;;5.03;;
68140;SDS011;54941;52.220;104.306;2022-10-04T10:06:28;7.85;;;4.35;;
68140;SDS011;54941;52.220;104.306;2022-10-04T10:09:07;14.45;;;6.75;;
68140;SDS011;54941;52.220;104.306;2022-10-04T10:11:44;8.85;;;5.32;;
68140;SDS011;54941;52.220;104.306;2022-10-04T10:17:14;14.75;;;6.88;;
68140;SDS011;54941;52.220;104.306;2022-10-04T10:19:57;11.00;;;5.90;;
68140;SDS011;54941;52.220;104.306;2022-10-04T10:25:43;8.15;;;5.15;;
68140;SDS011;54941;52.220;104.306;2022-10-04T10:28:29;16.38;;;5.97;;
68140;SDS011;54941;52.220;104.306;2022-10-04T10:31:18;12.77;;;5.80;;
68140;SDS011;54941;52.220;104.306;2022-10-04T10:37:03;16.10;;;6.10;;
68140;SDS011;54941;52.220;104.306;2022-10-04T10:42:44;13.90;;;6.70;;
68140;SDS011;54941;52.220;104.306;2022-10-04T10:45:33;13.95;;;5.82;;
68140;SDS011;54941;52.220;104.306;2022-10-04T10:48:11;10.50;;;5.15;;
68140;SDS011;54941;52.220;104.306;2022-10-04T10:50:48;9.45;;;5.45;;
68140;SDS011;54941;52.220;104.306;2022-10-04T10:53:25;13.18;;;5.70;;
68140;SDS011;54941;52.220;104.306;2022-10-04T10:59:19;12.68;;;6.32;;
68140;SDS011;54941;52.220;104.306;2022-10-04T11:02:29;15.60;;;7.38;;
68140;SDS011;54941;52.220;104.306;2022-10-04T11:05:23;14.77;;;8.55;;
68140;SDS011;54941;52.220;104.306;2022-10-04T11:08:09;16.17;;;6.65;;
68140;SDS011;54941;52.220;104.306;2022-10-04T11:10:58;14.57;;;6.43;;
68140;SDS011;54941;52.220;104.306;2022-10-04T11:16:52;15.30;;;7.45;;
68140;SDS011;54941;52.220;104.306;2022-10-04T11:19:41;12.82;;;6.38;;
68140;SDS011;54941;52.220;104.306;2022-10-04T11:22:37;13.25;;;6.57;;
68140;SDS011;54941;52.220;104.306;2022-10-04T11:25:27;14.55;;;6.38;;
68140;SDS011;54941;52.220;104.306;2022-10-04T11:28:16;15.18;;;7.43;;
68140;SDS011;54941;52.220;104.306;2022-10-04T11:31:03;18.30;;;7.65;;
68140;SDS011;54941;52.220;104.306;2022-10-04T11:33:59;17.90;;;7.82;;
68140;SDS011;54941;52.220;104.306;2022-10-04T11:36:46;16.25;;;6.90;;
68140;SDS011;54941;52.220;104.306;2022-10-04T11:39:32;17.90;;;7.32;;
68140;SDS011;54941;52.220;104.306;2022-10-04T11:42:16;20.30;;;7.32;;
68140;SDS011;54941;52.220;104.306;2022-10-04T11:47:50;13.00;;;7.88;;
68140;SDS011;54941;52.220;104.306;2022-10-04T11:50:34;13.95;;;7.43;;
68140;SDS011;54941;52.220;104.306;2022-10-04T11:56:28;14.27;;;6.65;;
68140;SDS011;54941;52.220;104.306;2022-10-04T11:59:19;13.13;;;7.50;;
68140;SDS011;54941;52.220;104.306;2022-10-04T12:05:19;14.10;;;6.38;;
68140;SDS011;54941;52.220;104.306;2022-10-04T12:08:08;10.65;;;6.20;;
68140;SDS011;54941;52.220;104.306;2022-10-04T12:11:11;11.88;;;6.15;;
68140;SDS011;54941;52.220;104.306;2022-10-04T12:14:10;11.63;;;6.72;;
68140;SDS011;54941;52.220;104.306;2022-10-04T12:20:11;16.08;;;6.22;;
68140;SDS011;54941;52.220;104.306;2022-10-04T12:22:59;13.50;;;6.22;;
68140;SDS011;54941;52.220;104.306;2022-10-04T12:25:51;16.80;;;6.22;;
68140;SDS011;54941;52.220;104.306;2022-10-04T12:28:46;12.48;;;6.65;;
68140;SDS011;54941;52.220;104.306;2022-10-04T12:31:32;14.43;;;6.75;;
68140;SDS011;54941;52.220;104.306;2022-10-04T12:34:09;16.42;;;7.30;;
68140;SDS011;54941;52.220;104.306;2022-10-04T12:36:56;14.07;;;7.00;;
68140;SDS011;54941;52.220;104.306;2022-10-04T12:39:43;12.32;;;6.35;;
68140;SDS011;54941;52.220;104.306;2022-10-04T12:42:35;13.52;;;7.07;;
68140;SDS011;54941;52.220;104.306;2022-10-04T12:45:17;15.27;;;8.38;;
68140;SDS011;54941;52.220;104.306;2022-10-04T12:48:01;19.73;;;6.72;;
68140;SDS011;54941;52.220;104.306;2022-10-04T12:50:47;10.60;;;6.28;;
68140;SDS011;54941;52.220;104.306;2022-10-04T12:55:57;13.00;;;5.78;;
68140;SDS011;54941;52.220;104.306;2022-10-04T12:58:41;14.77;;;6.50;;
68140;SDS011;54941;52.220;104.306;2022-10-04T13:01:15;13.65;;;6.65;;
68140;SDS011;54941;52.220;104.306;2022-10-04T13:04:01;11.88;;;6.60;;
68140;SDS011;54941;52.220;104.306;2022-10-04T13:07:01;13.23;;;6.25;;
68140;SDS011;54941;52.220;104.306;2022-10-04T13:09:47;17.05;;;7.85;;
68140;SDS011;54941;52.220;104.306;2022-10-04T13:12:28;17.95;;;7.63;;
68140;SDS011;54941;52.220;104.306;2022-10-04T13:15:07;13.13;;;6.40;;
68140;SDS011;54941;52.220;104.306;2022-10-04T13:17:47;17.05;;;7.07;;
68140;SDS011;54941;52.220;104.306;2022-10-04T13:23:20;15.60;;;9.15;;
68140;SDS011;54941;52.220;104.306;2022-10-04T13:26:06;19.13;;;9.02;;
68140;SDS011;54941;52.220;104.306;2022-10-04T13:28:42;19.35;;;10.38;;
68140;SDS011;54941;52.220;104.306;2022-10-04T13:31:19;27.55;;;11.60;;
68140;SDS011;54941;52.220;104.306;2022-10-04T13:33:54;28.98;;;12.48;;
68140;SDS011;54941;52.220;104.306;2022-10-04T13:36:26;28.77;;;13.05;;
68140;SDS011;54941;52.220;104.306;2022-10-04T13:39:07;25.48;;;12.00;;
68140;SDS011;54941;52.220;104.306;2022-10-04T13:42:14;30.52;;;12.70;;
68140;SDS011;54941;52.220;104.306;2022-10-04T13:45:01;20.10;;;9.80;;
68140;SDS011;54941;52.220;104.306;2022-10-04T13:47:46;19.70;;;9.43;;
68140;SDS011;54941;52.220;104.306;2022-10-04T13:50:33;16.20;;;8.60;;
68140;SDS011;54941;52.220;104.306;2022-10-04T13:53:14;17.80;;;8.27;;
68140;SDS011;54941;52.220;104.306;2022-10-04T13:55:55;17.02;;;8.07;;
68140;SDS011;54941;52.220;104.306;2022-10-04T13:58:30;17.70;;;8.85;;
68140;SDS011;54941;52.220;104.306;2022-10-04T14:01:20;17.27;;;8.35;;
68140;SDS011;54941;52.220;104.306;2022-10-04T14:04:07;18.50;;;9.23;;
68140;SDS011;54941;52.220;104.306;2022-10-04T14:10:02;28.15;;;13.95;;
68140;SDS011;54941;52.220;104.306;2022-10-04T14:16:06;22.55;;;11.88;;
68140;SDS011;54941;52.220;104.306;2022-10-04T14:19:05;25.13;;;11.15;;
68140;SDS011;54941;52.220;104.306;2022-10-04T14:28:35;13.20;;;6.38;;
68140;SDS011;54941;52.220;104.306;2022-10-04T14:31:22;17.05;;;8.07;;
68140;SDS011;54941;52.220;104.306;2022-10-04T14:34:24;16.83;;;8.45;;
68140;SDS011;54941;52.220;104.306;2022-10-04T14:37:20;19.10;;;10.05;;
68140;SDS011;54941;52.220;104.306;2022-10-04T14:40:19;20.50;;;9.73;;
68140;SDS011;54941;52.220;104.306;2022-10-04T14:43:06;13.93;;;6.32;;
68140;SDS011;54941;52.220;104.306;2022-10-04T14:45:58;26.20;;;10.63;;
68140;SDS011;54941;52.220;104.306;2022-10-04T14:48:42;19.92;;;7.78;;
68140;SDS011;54941;52.220;104.306;2022-10-04T14:51:30;20.35;;;10.32;;
68140;SDS011;54941;52.220;104.306;2022-10-04T14:54:11;17.65;;;8.45;;
68140;SDS011;54941;52.220;104.306;2022-10-04T14:56:55;14.88;;;7.45;;
68140;SDS011;54941;52.220;104.306;2022-10-04T14:59:39;21.23;;;7.95;;
68140;SDS011;54941;52.220;104.306;2022-10-04T15:05:36;18.35;;;7.80;;
68140;SDS011;54941;52.220;104.306;2022-10-04T15:08:25;12.38;;;5.93;;
68140;SDS011;54941;52.220;104.306;2022-10-04T15:11:17;13.63;;;5.60;;
68140;SDS011;54941;52.220;104.306;2022-10-04T15:13:59;10.00;;;5.50;;
68140;SDS011;54941;52.220;104.306;2022-10-04T15:16:30;16.55;;;8.15;;
68140;SDS011;54941;52.220;104.306;2022-10-04T15:19:03;20.20;;;8.88;;
68140;SDS011;54941;52.220;104.306;2022-10-04T15:21:42;17.42;;;9.13;;
68140;SDS011;54941;52.220;104.306;2022-10-04T15:24:26;19.88;;;8.38;;
68140;SDS011;54941;52.220;104.306;2022-10-04T15:30:08;16.52;;;8.82;;
68140;SDS011;54941;52.220;104.306;2022-10-04T15:32:44;19.48;;;8.75;;
68140;SDS011;54941;52.220;104.306;2022-10-04T15:35:23;15.57;;;9.38;;
68140;SDS011;54941;52.220;104.306;2022-10-04T15:37:59;15.98;;;7.68;;
68140;SDS011;54941;52.220;104.306;2022-10-04T15:40:32;14.23;;;7.20;;
68140;SDS011;54941;52.220;104.306;2022-10-04T15:43:13;14.52;;;7.43;;
68140;SDS011;54941;52.220;104.306;2022-10-04T15:45:51;14.02;;;7.53;;
68140;SDS011;54941;52.220;104.306;2022-10-04T15:48:27;11.68;;;6.07;;
68140;SDS011;54941;52.220;104.306;2022-10-04T15:51:02;11.85;;;6.45;;
68140;SDS011;54941;52.220;104.306;2022-10-04T15:53:43;13.02;;;6.55;;
68140;SDS011;54941;52.220;104.306;2022-10-04T15:56:24;16.67;;;6.88;;
68140;SDS011;54941;52.220;104.306;2022-10-04T15:59:07;13.50;;;6.85;;
68140;SDS011;54941;52.220;104.306;2022-10-04T16:01:49;12.85;;;6.22;;
68140;SDS011;54941;52.220;104.306;2022-10-04T16:04:44;13.15;;;6.57;;
68140;SDS011;54941;52.220;104.306;2022-10-04T16:07:30;11.63;;;6.03;;
68140;SDS011;54941;52.220;104.306;2022-10-04T16:10:11;13.02;;;6.90;;
68140;SDS011;54941;52.220;104.306;2022-10-04T16:12:55;13.05;;;6.07;;
68140;SDS011;54941;52.220;104.306;2022-10-04T16:15:35;12.88;;;6.30;;
68140;SDS011;54941;52.220;104.306;2022-10-04T16:18:16;13.90;;;6.28;;
68140;SDS011;54941;52.220;104.306;2022-10-04T16:21:03;12.93;;;6.20;;
68140;SDS011;54941;52.220;104.306;2022-10-04T16:23:34;14.13;;;6.25;;
68140;SDS011;54941;52.220;104.306;2022-10-04T16:26:04;13.15;;;6.88;;
68140;SDS011;54941;52.220;104.306;2022-10-04T16:28:46;11.45;;;6.13;;
68140;SDS011;54941;52.220;104.306;2022-10-04T16:31:36;9.90;;;5.55;;
68140;SDS011;54941;52.220;104.306;2022-10-04T16:34:13;12.93;;;6.35;;
68140;SDS011;54941;52.220;104.306;2022-10-04T16:36:50;14.25;;;6.80;;
68140;SDS011;54941;52.220;104.306;2022-10-04T16:39:30;11.80;;;6.47;;
68140;SDS011;54941;52.220;104.306;2022-10-04T16:42:01;12.43;;;6.95;;
68140;SDS011;54941;52.220;104.306;2022-10-04T16:44:33;11.25;;;5.63;;
68140;SDS011;54941;52.220;104.306;2022-10-04T16:47:11;12.38;;;6.18;;
68140;SDS011;54941;52.220;104.306;2022-10-04T16:49:47;10.93;;;6.15;;
68140;SDS011;54941;52.220;104.306;2022-10-04T16:52:26;14.05;;;6.40;;
68140;SDS011;54941;52.220;104.306;2022-10-04T16:55:15;11.52;;;6.30;;
68140;SDS011;54941;52.220;104.306;2022-10-04T17:00:51;10.90;;;5.53;;